Time;durP1;ratioP1;P1;durP2;ratioP2;P2;SDS_P1;SDS_P2;PMS_P1;PMS_P2;Temp;Humidity;BMP_temperature;BMP_pressure;BME280_temperature;BME280_humidity;BME280_pressure;Samples;Min_cycle;Max_cycle;Signal;HPM_P1;HPM_P2
2021/07/13 00:02:02;;;;;;;18.77;11.30;;;19.40;97.30;;;;;;5018610;28;20181;-90
2021/07/13 00:04:27;;;;;;;21.63;11.67;;;19.30;97.30;;;;;;5018510;28;20211;-90
2021/07/13 00:06:53;;;;;;;19.53;12.00;;;19.30;97.30;;;;;;5018651;28;21039;-90
2021/07/13 00:09:20;;;;;;;22.10;12.50;;;19.30;97.30;;;;;;5018418;28;20187;-90
2021/07/13 00:11:46;;;;;;;15.40;11.40;;;19.20;97.30;;;;;;5018341;28;20239;-90
2021/07/13 00:14:12;;;;;;;19.43;11.53;;;19.20;97.30;;;;;;5036545;28;20573;-90
2021/07/13 00:16:37;;;;;;;15.80;10.67;;;19.20;97.30;;;;;;5019278;28;20443;-89
2021/07/13 00:19:03;;;;;;;19.00;11.73;;;19.10;97.30;;;;;;5019569;28;20203;-90
2021/07/13 00:21:29;;;;;;;17.87;11.90;;;19.10;97.30;;;;;;5019180;28;20180;-89
2021/07/13 00:23:54;;;;;;;17.30;11.33;;;19.10;97.30;;;;;;5019031;28;20282;-90
2021/07/13 00:26:20;;;;;;;16.37;10.23;;;19.10;97.30;;;;;;5036727;28;20252;-90
2021/07/13 00:28:46;;;;;;;18.17;11.20;;;19.10;97.30;;;;;;5036321;28;20175;-90
2021/07/13 00:31:11;;;;;;;17.20;12.07;;;19.10;97.30;;;;;;5018057;28;20549;-90
2021/07/13 00:33:37;;;;;;;15.00;11.40;;;19.00;97.30;;;;;;5017406;28;20205;-89
2021/07/13 00:36:02;;;;;;;16.30;12.10;;;19.00;97.30;;;;;;5017942;28;20627;-91
2021/07/13 00:38:28;;;;;;;21.83;11.67;;;19.00;97.30;;;;;;5017931;28;20227;-90
2021/07/13 00:40:54;;;;;;;16.83;11.30;;;18.90;97.30;;;;;;5018592;28;20176;-90
2021/07/13 00:43:22;;;;;;;18.70;11.80;;;18.90;97.30;;;;;;5099857;22;20227;-90
2021/07/13 00:45:48;;;;;;;16.00;10.40;;;18.90;97.30;;;;;;5035308;28;20168;-89
2021/07/13 00:48:29;;;;;;;17.90;12.07;;;18.90;97.30;;;;;;5017725;28;20996;-90
2021/07/13 00:51:09;;;;;;;21.93;12.03;;;18.80;97.30;;;;;;5016310;28;20204;-90
2021/07/13 00:53:38;;;;;;;15.30;11.20;;;18.80;97.30;;;;;;5016559;28;20439;-90
2021/07/13 00:56:13;;;;;;;19.37;11.47;;;18.80;97.30;;;;;;5034709;28;20411;-90
2021/07/13 00:58:41;;;;;;;17.20;12.13;;;18.70;97.30;;;;;;5016781;28;20819;-90
2021/07/13 01:01:16;;;;;;;17.00;11.13;;;18.70;97.30;;;;;;5017699;28;20803;-90
2021/07/13 01:04:09;;;;;;;21.30;11.40;;;18.60;97.30;;;;;;5017245;28;20435;-90
2021/07/13 01:06:48;;;;;;;21.13;11.10;;;18.60;97.30;;;;;;5017673;28;20446;-90
2021/07/13 01:09:26;;;;;;;16.33;11.20;;;18.50;97.30;;;;;;5017805;28;20497;-89
2021/07/13 01:12:06;;;;;;;18.03;11.23;;;18.50;97.30;;;;;;5017117;28;20488;-89
2021/07/13 01:14:41;;;;;;;20.33;11.13;;;18.40;97.30;;;;;;5017272;28;20435;-90
2021/07/13 01:17:14;;;;;;;17.83;11.43;;;18.40;97.30;;;;;;5035414;28;20402;-90
2021/07/13 01:19:53;;;;;;;16.47;10.37;;;18.40;97.30;;;;;;5018098;28;20423;-90
2021/07/13 01:22:28;;;;;;;15.60;10.30;;;18.40;97.30;;;;;;5035733;28;20403;-90
2021/07/13 01:25:07;;;;;;;17.33;11.57;;;18.40;97.30;;;;;;5018308;28;20430;-90
2021/07/13 01:27:46;;;;;;;17.17;11.47;;;18.40;97.30;;;;;;5018153;28;20407;-90
2021/07/13 01:30:19;;;;;;;21.70;12.27;;;18.30;97.30;;;;;;5018254;28;20790;-90
2021/07/13 01:35:23;;;;;;;18.43;10.43;;;18.30;97.30;;;;;;5134640;22;20491;-90
2021/07/13 01:37:52;;;;;;;15.40;10.77;;;18.30;97.30;;;;;;5017184;28;20429;-90
2021/07/13 01:40:18;;;;;;;15.70;10.93;;;18.20;97.30;;;;;;5034250;28;20506;-90
2021/07/13 01:42:47;;;;;;;21.40;11.33;;;18.20;97.30;;;;;;5035425;28;20415;-89
2021/07/13 01:45:13;;;;;;;15.23;10.63;;;18.20;97.30;;;;;;4997630;28;20432;-89
2021/07/13 01:47:40;;;;;;;16.23;10.87;;;18.20;97.30;;;;;;4998445;28;20420;-90
2021/07/13 01:50:08;;;;;;;18.47;11.83;;;18.20;97.30;;;;;;5016651;28;20185;-90
2021/07/13 01:52:38;;;;;;;16.63;11.13;;;18.10;97.30;;;;;;5001990;28;20460;-90
2021/07/13 01:55:06;;;;;;;16.57;11.50;;;18.10;97.30;;;;;;4980491;28;20436;-90
2021/07/13 01:57:33;;;;;;;18.00;10.87;;;18.10;97.30;;;;;;4997457;28;20420;-90
2021/07/13 02:00:05;;;;;;;16.50;10.80;;;18.10;97.30;;;;;;4997301;28;20420;-90
2021/07/13 02:02:31;;;;;;;17.90;11.73;;;18.10;97.30;;;;;;4996820;28;20426;-88
2021/07/13 02:05:00;;;;;;;19.80;11.07;;;18.00;97.30;;;;;;4996478;28;20900;-90
2021/07/13 02:07:26;;;;;;;18.23;11.47;;;18.00;97.30;;;;;;4996652;28;20478;-90
2021/07/13 02:09:59;;;;;;;18.53;10.97;;;18.00;97.30;;;;;;4996661;28;20420;-90
2021/07/13 02:12:24;;;;;;;14.70;10.67;;;18.00;97.30;;;;;;4997496;28;20509;-89
2021/07/13 02:14:50;;;;;;;16.67;10.90;;;17.90;97.30;;;;;;4997654;28;20965;-90
2021/07/13 02:17:16;;;;;;;17.67;11.80;;;17.90;97.30;;;;;;4998120;28;20181;-90
2021/07/13 02:19:41;;;;;;;14.97;10.27;;;17.90;97.30;;;;;;4998156;28;20188;-90
2021/07/13 02:22:08;;;;;;;17.63;10.83;;;17.80;97.30;;;;;;4998011;28;20192;-90
2021/07/13 02:24:34;;;;;;;19.80;11.13;;;17.80;97.30;;;;;;4998158;28;20739;-89
2021/07/13 02:27:09;;;;;;;13.97;10.17;;;17.80;97.30;;;;;;4997860;28;20814;-89
2021/07/13 02:29:56;;;;;;;16.50;10.97;;;17.80;97.30;;;;;;4996999;28;20420;-89
2021/07/13 02:32:32;;;;;;;16.97;11.47;;;17.70;97.30;;;;;;4996044;28;20478;-90
2021/07/13 02:35:00;;;;;;;19.10;11.67;;;17.70;97.30;;;;;;5044679;23;20506;-90
2021/07/13 02:37:29;;;;;;;16.53;11.77;;;17.70;97.30;;;;;;5033294;28;20518;-89
2021/07/13 02:39:56;;;;;;;17.50;11.40;;;17.70;97.30;;;;;;5015853;28;20407;-90
2021/07/13 02:42:24;;;;;;;17.50;11.50;;;17.70;97.30;;;;;;5015376;28;20419;-90
2021/07/13 02:44:54;;;;;;;19.20;11.80;;;17.70;97.30;;;;;;5039603;23;20490;-89
2021/07/13 02:47:19;;;;;;;21.13;12.10;;;17.60;97.30;;;;;;5032679;28;20929;-89
2021/07/13 02:49:48;;;;;;;19.00;11.50;;;17.60;97.30;;;;;;5015888;28;20460;-90
2021/07/13 02:52:18;;;;;;;18.03;11.17;;;17.60;97.30;;;;;;5033256;28;20192;-90
2021/07/13 02:54:45;;;;;;;21.93;11.87;;;17.50;97.30;;;;;;5016030;28;20987;-90
2021/07/13 02:57:12;;;;;;;19.93;11.80;;;17.50;97.30;;;;;;5035903;28;20464;-89
2021/07/13 02:59:40;;;;;;;17.40;10.37;;;17.50;97.30;;;;;;5019843;28;20433;-90
2021/07/13 03:02:08;;;;;;;21.97;11.53;;;17.50;97.30;;;;;;5019935;28;20425;-89
2021/07/13 03:04:38;;;;;;;17.60;11.83;;;17.50;97.30;;;;;;5061161;23;20495;-89
2021/07/13 03:07:04;;;;;;;20.93;12.20;;;17.50;97.30;;;;;;5020390;28;20438;-89
2021/07/13 03:09:30;;;;;;;17.60;11.63;;;17.50;97.30;;;;;;5020466;28;20437;-89
2021/07/13 03:11:59;;;;;;;18.63;10.80;;;17.50;97.30;;;;;;5019649;28;20557;-88
2021/07/13 03:14:26;;;;;;;16.57;11.27;;;17.50;97.30;;;;;;5020392;28;20219;-89
2021/07/13 03:16:54;;;;;;;26.27;11.07;;;17.50;97.30;;;;;;5020730;28;20450;-89
2021/07/13 03:19:20;;;;;;;23.83;10.90;;;17.50;97.30;;;;;;5020475;28;20926;-89
2021/07/13 03:21:51;;;;;;;24.40;11.90;;;17.40;97.30;;;;;;5019838;28;20419;-90
2021/07/13 03:24:18;;;;;;;20.93;11.63;;;17.40;97.30;;;;;;5018857;28;20243;-89
2021/07/13 03:26:45;;;;;;;15.17;10.50;;;17.40;97.30;;;;;;5036605;28;20418;-89
2021/07/13 03:29:12;;;;;;;16.90;10.73;;;17.40;97.30;;;;;;5019096;28;20422;-90
2021/07/13 03:31:38;;;;;;;15.30;11.33;;;17.40;97.30;;;;;;5019015;28;20980;-89
2021/07/13 03:34:05;;;;;;;16.27;10.53;;;17.40;97.30;;;;;;5017962;28;20431;-89
2021/07/13 03:36:32;;;;;;;16.97;10.50;;;17.40;97.30;;;;;;5018630;28;20459;-90
2021/07/13 03:39:00;;;;;;;18.40;10.80;;;17.40;97.30;;;;;;5035880;28;20921;-89
2021/07/13 03:41:29;;;;;;;17.70;10.30;;;17.40;97.30;;;;;;5017750;28;20497;-89
2021/07/13 03:44:04;;;;;;;16.57;10.93;;;17.40;97.30;;;;;;5019555;28;20442;-89
2021/07/13 03:46:37;;;;;;;14.93;9.80;;;17.40;97.30;;;;;;5018394;28;20418;-87
2021/07/13 03:49:07;;;;;;;15.90;10.60;;;17.40;97.30;;;;;;5036168;28;20934;-89
2021/07/13 03:51:43;;;;;;;21.67;10.10;;;17.50;97.30;;;;;;5018324;28;20469;-89
2021/07/13 03:54:11;;;;;;;17.87;11.13;;;17.50;97.30;;;;;;5018649;28;20474;-89
2021/07/13 03:56:37;;;;;;;16.40;10.47;;;17.50;97.30;;;;;;5019234;28;20430;-89
2021/07/13 03:59:03;;;;;;;16.80;10.77;;;17.50;97.30;;;;;;5019355;28;20411;-90
2021/07/13 04:01:29;;;;;;;16.70;11.37;;;17.50;97.30;;;;;;5019352;28;20234;-89
2021/07/13 04:03:54;;;;;;;18.80;11.20;;;17.50;97.30;;;;;;5019214;28;20478;-90
2021/07/13 04:06:20;;;;;;;25.70;12.13;;;17.60;97.30;;;;;;5019851;28;20176;-89
2021/07/13 04:08:45;;;;;;;21.83;11.73;;;17.60;97.30;;;;;;5018972;28;20180;-90
2021/07/13 04:11:11;;;;;;;19.80;11.50;;;17.60;97.30;;;;;;5019433;28;20193;-90
2021/07/13 04:13:37;;;;;;;14.73;10.07;;;17.60;97.30;;;;;;5019805;28;20667;-91
2021/07/13 04:16:02;;;;;;;19.60;11.83;;;17.70;97.30;;;;;;5019734;28;20192;-90
2021/07/13 04:18:29;;;;;;;16.70;10.73;;;17.70;97.30;;;;;;5019378;28;20913;-89
2021/07/13 04:20:54;;;;;;;18.67;10.80;;;17.70;97.30;;;;;;5018692;28;20181;-89
2021/07/13 04:23:20;;;;;;;18.23;11.90;;;17.70;97.30;;;;;;5017404;28;20426;-89
2021/07/13 04:25:46;;;;;;;15.63;11.17;;;17.80;97.30;;;;;;5017937;28;20177;-89
2021/07/13 04:28:11;;;;;;;15.47;11.23;;;17.80;97.30;;;;;;5035436;28;20165;-89
2021/07/13 04:30:37;;;;;;;16.33;11.10;;;17.90;97.30;;;;;;5017807;28;20430;-89
2021/07/13 04:33:03;;;;;;;14.90;10.50;;;17.90;97.30;;;;;;5017257;28;20663;-90
2021/07/13 04:35:29;;;;;;;16.07;11.50;;;18.00;97.30;;;;;;5017339;28;20181;-89
2021/07/13 04:37:54;;;;;;;17.40;10.67;;;18.00;97.30;;;;;;5017042;28;20423;-89
2021/07/13 04:40:20;;;;;;;23.27;12.73;;;18.00;97.30;;;;;;5017712;28;20172;-89
2021/07/13 04:42:45;;;;;;;16.93;11.60;;;18.00;97.30;;;;;;5018066;28;20181;-89
2021/07/13 04:45:11;;;;;;;16.60;12.30;;;18.10;97.30;;;;;;5033919;23;20250;-89
2021/07/13 04:47:37;;;;;;;19.87;12.50;;;18.10;97.30;;;;;;5035278;28;20243;-89
2021/07/13 04:50:05;;;;;;;19.53;11.57;;;18.10;97.30;;;;;;5017691;28;20439;-90
2021/07/13 04:52:30;;;;;;;26.83;12.87;;;18.10;97.30;;;;;;5017494;28;20200;-89
2021/07/13 04:54:58;;;;;;;22.33;12.63;;;18.10;97.30;;;;;;5017717;28;20439;-89
2021/07/13 04:57:25;;;;;;;16.80;11.70;;;18.20;97.30;;;;;;5018810;28;20650;-89
2021/07/13 04:59:51;;;;;;;18.43;10.93;;;18.20;97.30;;;;;;5019306;28;20415;-89
2021/07/13 05:02:18;;;;;;;18.70;10.60;;;18.30;97.30;;;;;;5039104;28;20522;-89
2021/07/13 05:04:43;;;;;;;13.63;10.33;;;18.30;97.30;;;;;;5039488;28;20192;-89
2021/07/13 05:07:09;;;;;;;12.10;9.87;;;18.40;97.30;;;;;;5019775;28;20913;-89
2021/07/13 05:09:38;;;;;;;14.20;10.10;;;18.40;97.30;;;;;;5019746;28;20183;-86
2021/07/13 05:12:04;;;;;;;16.10;10.00;;;18.40;97.30;;;;;;5020648;28;20603;-86
2021/07/13 05:14:30;;;;;;;15.37;10.17;;;18.50;97.30;;;;;;5018992;28;20443;-86
2021/07/13 05:16:56;;;;;;;14.00;10.23;;;18.50;97.30;;;;;;5018426;28;20443;-85
2021/07/13 05:19:22;;;;;;;13.20;9.67;;;18.50;97.30;;;;;;5022564;28;20427;-87
2021/07/13 05:21:55;;;;;;;16.13;10.33;;;18.60;97.30;;;;;;5019018;28;20433;-88
2021/07/13 05:24:21;;;;;;;14.30;9.33;;;18.70;97.30;;;;;;5023632;28;20489;-89
2021/07/13 05:26:47;;;;;;;14.23;10.30;;;18.70;97.30;;;;;;5018941;28;20422;-89
2021/07/13 05:29:12;;;;;;;11.73;8.90;;;18.70;97.30;;;;;;5016544;28;20419;-89
2021/07/13 05:31:38;;;;;;;12.80;9.30;;;18.80;97.30;;;;;;5016126;28;20698;-89
2021/07/13 05:34:03;;;;;;;13.83;9.33;;;18.80;97.30;;;;;;5016218;28;20251;-90
2021/07/13 05:36:29;;;;;;;12.07;8.20;;;18.90;97.30;;;;;;5017838;28;20179;-89
2021/07/13 05:38:55;;;;;;;10.57;8.30;;;18.90;97.30;;;;;;5017240;28;20172;-87
2021/07/13 05:41:24;;;;;;;11.63;8.10;;;19.00;97.30;;;;;;5019525;28;20173;-88
2021/07/13 05:43:55;;;;;;;12.83;7.77;;;19.00;97.30;;;;;;5016554;28;20467;-88
2021/07/13 05:46:31;;;;;;;;;;;;;;;;;;;;;
2021/07/13 05:50:10;;;;;;;10.27;7.63;;;19.10;97.30;;;;;;5034470;28;20394;-88
2021/07/13 05:52:39;;;;;;;8.50;6.97;;;19.20;97.30;;;;;;5010188;28;20463;-88
2021/07/13 05:55:06;;;;;;;10.43;7.40;;;19.30;97.30;;;;;;5017584;28;20447;-88
2021/07/13 05:57:32;;;;;;;12.00;8.00;;;19.40;97.30;;;;;;5017954;28;20419;-88
2021/07/13 05:59:58;;;;;;;9.07;6.63;;;19.40;97.30;;;;;;5018161;28;20417;-89
2021/07/13 06:02:24;;;;;;;8.13;7.27;;;19.50;97.30;;;;;;5019205;28;20995;-90
2021/07/13 06:04:50;;;;;;;7.90;6.20;;;19.60;97.30;;;;;;5019087;28;20439;-90
2021/07/13 06:07:15;;;;;;;10.10;6.63;;;19.60;97.30;;;;;;5018827;28;20177;-90
2021/07/13 06:09:44;;;;;;;15.00;6.90;;;19.70;97.30;;;;;;5018318;28;20490;-90
2021/07/13 06:12:09;;;;;;;11.83;6.77;;;19.80;97.30;;;;;;5015959;28;20694;-89
2021/07/13 06:14:37;;;;;;;11.03;6.20;;;19.80;97.30;;;;;;5015920;28;20527;-89
2021/07/13 06:17:04;;;;;;;14.23;6.80;;;19.90;97.30;;;;;;5015736;28;20221;-89
2021/07/13 06:19:30;;;;;;;10.17;5.63;;;20.00;97.30;;;;;;5015439;28;20411;-89
2021/07/13 06:21:55;;;;;;;8.40;6.37;;;20.00;97.30;;;;;;5015824;28;20423;-90
2021/07/13 06:24:24;;;;;;;8.97;5.90;;;20.10;97.30;;;;;;5016051;28;20439;-89
2021/07/13 06:26:50;;;;;;;9.10;6.60;;;20.20;97.30;;;;;;5016431;28;20595;-89
2021/07/13 06:29:15;;;;;;;13.33;6.30;;;20.30;97.30;;;;;;5015613;28;20415;-89
2021/07/13 06:31:41;;;;;;;10.97;6.13;;;20.30;97.30;;;;;;5016434;28;20959;-87
2021/07/13 06:34:07;;;;;;;10.80;6.20;;;20.40;97.30;;;;;;5020686;28;20303;-89
2021/07/13 06:36:33;;;;;;;10.63;6.10;;;20.50;97.30;;;;;;5019325;28;20505;-89
2021/07/13 06:38:58;;;;;;;11.80;6.60;;;20.60;97.30;;;;;;5037067;28;20179;-88
2021/07/13 06:41:24;;;;;;;7.50;6.10;;;20.70;97.30;;;;;;5019705;28;20185;-88
2021/07/13 06:43:50;;;;;;;19.33;6.30;;;20.70;97.30;;;;;;5019254;28;20976;-88
2021/07/13 06:46:15;;;;;;;10.23;6.10;;;20.80;97.30;;;;;;5019179;28;20299;-88
2021/07/13 06:48:43;;;;;;;11.60;6.10;;;20.90;97.30;;;;;;5020424;28;20188;-88
2021/07/13 06:51:08;;;;;;;9.40;5.90;;;20.90;97.30;;;;;;5020008;28;20200;-89
2021/07/13 06:53:34;;;;;;;13.33;5.83;;;21.00;97.30;;;;;;5020250;28;20439;-88
2021/07/13 06:55:59;;;;;;;10.00;6.10;;;21.10;97.30;;;;;;5038516;28;20165;-89
2021/07/13 06:58:25;;;;;;;8.30;6.27;;;21.20;97.30;;;;;;5020686;28;20793;-88
2021/07/13 07:00:50;;;;;;;7.63;6.03;;;21.30;97.30;;;;;;5020559;28;20322;-87
2021/07/13 07:03:16;;;;;;;7.50;6.10;;;21.30;97.30;;;;;;5020935;28;20566;-88
2021/07/13 07:05:42;;;;;;;8.80;5.90;;;21.40;97.30;;;;;;5020328;28;20180;-87
2021/07/13 07:08:08;;;;;;;8.47;6.20;;;21.50;97.30;;;;;;5020433;28;20187;-87
2021/07/13 07:10:35;;;;;;;8.20;6.40;;;21.60;97.30;;;;;;5036921;28;20476;-88
2021/07/13 07:13:01;;;;;;;12.37;7.30;;;21.70;97.30;;;;;;5018914;28;20809;-87
2021/07/13 07:15:28;;;;;;;6.83;6.40;;;21.70;97.30;;;;;;5018795;28;20422;-88
2021/07/13 07:17:54;;;;;;;16.53;6.53;;;21.70;97.30;;;;;;5018851;28;20465;-88
2021/07/13 07:20:29;;;;;;;8.23;5.83;;;21.70;97.30;;;;;;5018659;28;20465;-87
2021/07/13 07:22:58;;;;;;;9.73;6.93;;;21.80;97.30;;;;;;5037063;28;20418;-88
2021/07/13 07:25:27;;;;;;;12.40;7.40;;;21.80;97.30;;;;;;5018336;28;20418;-88
2021/07/13 07:27:55;;;;;;;9.77;6.93;;;21.90;97.30;;;;;;5018450;28;20419;-88
2021/07/13 07:30:22;;;;;;;13.83;8.00;;;22.00;97.30;;;;;;5018050;28;20511;-88
2021/07/13 07:32:47;;;;;;;12.03;8.20;;;22.10;97.30;;;;;;5017672;28;20458;-87
2021/07/13 07:35:14;;;;;;;16.90;8.20;;;22.20;97.30;;;;;;5017711;28;20917;-89
2021/07/13 07:37:40;;;;;;;13.13;7.50;;;22.30;97.30;;;;;;5018265;28;20263;-87
2021/07/13 07:40:07;;;;;;;10.90;6.40;;;22.30;97.30;;;;;;5018493;28;20425;-88
2021/07/13 07:42:32;;;;;;;10.00;6.53;;;22.40;97.30;;;;;;5017402;28;21039;-87
2021/07/13 07:44:59;;;;;;;11.00;6.13;;;22.40;97.30;;;;;;5018221;28;20528;-87
2021/07/13 07:47:24;;;;;;;11.67;6.70;;;22.50;97.30;;;;;;5018485;28;20181;-84
2021/07/13 07:49:50;;;;;;;12.33;5.87;;;22.50;97.30;;;;;;5017731;28;20553;-87
2021/07/13 07:52:16;;;;;;;7.30;5.60;;;22.60;97.30;;;;;;5018420;28;20246;-88
2021/07/13 07:54:44;;;;;;;10.20;5.03;;;22.60;97.30;;;;;;5018213;28;20295;-89
2021/07/13 07:57:09;;;;;;;6.20;4.37;;;22.70;97.30;;;;;;5018614;28;20533;-88
2021/07/13 07:59:35;;;;;;;6.00;4.77;;;22.80;97.30;;;;;;5018836;28;20423;-88
2021/07/13 08:02:00;;;;;;;16.73;5.13;;;22.90;97.30;;;;;;5019660;28;20234;-87
2021/07/13 08:04:28;;;;;;;4.73;4.27;;;23.10;97.30;;;;;;5019343;28;20204;-88
2021/07/13 08:06:54;;;;;;;6.47;4.20;;;23.20;97.30;;;;;;5019457;28;20234;-87
2021/07/13 08:09:20;;;;;;;3.50;3.30;;;23.40;97.30;;;;;;5019476;28;20415;-88
2021/07/13 08:11:45;;;;;;;4.53;2.90;;;23.50;97.30;;;;;;5019332;28;20222;-88
2021/07/13 08:14:13;;;;;;;7.20;3.43;;;23.60;97.30;;;;;;5018921;28;20435;-88
2021/07/13 08:16:40;;;;;;;3.87;2.67;;;23.70;97.30;;;;;;5036295;28;20252;-88
2021/07/13 08:19:07;;;;;;;5.97;3.37;;;23.80;97.30;;;;;;5018794;28;20419;-88
2021/07/13 08:21:33;;;;;;;9.20;3.80;;;23.90;97.30;;;;;;5017795;28;20427;-88
2021/07/13 08:23:59;;;;;;;5.30;3.13;;;24.00;97.30;;;;;;5017381;28;20447;-88
2021/07/13 08:26:27;;;;;;;5.50;2.80;;;24.10;97.30;;;;;;5034728;28;20435;-87
2021/07/13 08:28:53;;;;;;;3.60;3.17;;;24.20;97.30;;;;;;5017081;28;20268;-87
2021/07/13 08:31:19;;;;;;;4.00;3.20;;;24.20;97.30;;;;;;5016959;28;20509;-88
2021/07/13 08:33:45;;;;;;;5.67;3.17;;;24.20;97.00;;;;;;5016835;28;20439;-88
2021/07/13 08:36:10;;;;;;;3.60;3.40;;;24.30;97.30;;;;;;5017011;28;20550;-87
2021/07/13 08:38:38;;;;;;;3.80;3.13;;;24.30;97.30;;;;;;5034713;28;20200;-88
2021/07/13 08:41:04;;;;;;;3.07;2.87;;;24.40;97.30;;;;;;5017776;28;20180;-87
2021/07/13 08:43:30;;;;;;;4.20;3.33;;;24.40;97.30;;;;;;5035651;28;20482;-87
2021/07/13 08:45:56;;;;;;;8.17;3.50;;;24.50;97.30;;;;;;5018486;28;20195;-87
2021/07/13 08:48:24;;;;;;;3.50;3.33;;;24.50;97.30;;;;;;5020484;28;21142;-88
2021/07/13 08:50:57;;;;;;;4.70;3.57;;;24.60;97.30;;;;;;5025426;28;20439;-87
2021/07/13 08:53:24;;;;;;;7.43;3.33;;;24.70;97.30;;;;;;5026031;28;20890;-87
2021/07/13 08:55:51;;;;;;;4.53;3.87;;;24.80;97.30;;;;;;5033021;28;20784;-87
2021/07/13 08:58:16;;;;;;;6.30;3.07;;;24.80;97.30;;;;;;5034789;28;20426;-87
2021/07/13 09:00:42;;;;;;;5.63;3.53;;;24.90;97.30;;;;;;5019750;28;20431;-87
2021/07/13 09:03:12;;;;;;;7.27;4.20;;;25.00;97.30;;;;;;5017210;28;20713;-87
2021/07/13 09:05:56;;;;;;;10.40;3.73;;;25.00;97.30;;;;;;5016651;28;20415;-87
2021/07/13 09:08:30;;;;;;;4.00;3.40;;;25.00;97.30;;;;;;5035018;28;20418;-87
2021/07/13 09:11:06;;;;;;;4.20;3.37;;;25.00;97.30;;;;;;5017356;28;20501;-87
2021/07/13 09:13:36;;;;;;;3.83;3.63;;;25.00;97.30;;;;;;5016682;28;20427;-87
2021/07/13 09:16:03;;;;;;;6.87;4.03;;;24.90;97.30;;;;;;5016727;28;20506;-87
2021/07/13 09:18:34;;;;;;;5.57;3.60;;;24.90;97.30;;;;;;5017023;28;20423;-87
2021/07/13 09:21:34;;;;;;;5.10;4.47;;;24.90;97.30;;;;;;5017197;28;20423;-87
2021/07/13 09:24:16;;;;;;;4.50;3.80;;;25.10;97.30;;;;;;5015492;28;20475;-88
2021/07/13 09:26:46;;;;;;;4.00;3.90;;;25.20;97.30;;;;;;4997453;28;20408;-87
2021/07/13 09:29:35;;;;;;;5.33;4.50;;;25.30;97.30;;;;;;5015825;28;20922;-88
2021/07/13 09:32:25;;;;;;;4.80;3.90;;;25.40;97.30;;;;;;5017183;28;20486;-87
2021/07/13 09:35:05;;;;;;;4.67;3.70;;;25.50;97.30;;;;;;5017094;28;20439;-86
2021/07/13 09:37:39;;;;;;;4.83;4.50;;;25.50;96.50;;;;;;5017042;28;20429;-87
2021/07/13 09:40:09;;;;;;;9.53;4.30;;;25.50;96.60;;;;;;5017277;28;20403;-87
2021/07/13 09:42:55;;;;;;;9.10;4.50;;;25.50;97.00;;;;;;5016485;28;20435;-87
2021/07/13 09:45:21;;;;;;;9.03;4.70;;;25.50;96.30;;;;;;5016149;28;20489;-87
2021/07/13 09:47:48;;;;;;;7.77;4.80;;;25.50;96.90;;;;;;5034686;28;21067;-87
2021/07/13 09:50:32;;;;;;;8.90;4.60;;;25.60;97.00;;;;;;5015265;28;20193;-87
2021/07/13 09:52:59;;;;;;;6.70;5.10;;;25.60;97.30;;;;;;5015130;28;20437;-87
2021/07/13 09:55:26;;;;;;;7.87;6.10;;;25.60;97.30;;;;;;5033310;28;20407;-87
2021/07/13 09:57:53;;;;;;;7.40;6.40;;;25.60;97.30;;;;;;5015467;28;20430;-87
2021/07/13 10:00:20;;;;;;;7.43;6.33;;;25.60;97.30;;;;;;5015484;28;20403;-88
2021/07/13 10:02:46;;;;;;;7.50;5.93;;;25.50;97.30;;;;;;5015651;28;20428;-88
2021/07/13 10:05:13;;;;;;;9.20;6.73;;;25.50;97.30;;;;;;5020768;23;20800;-81
2021/07/13 10:07:39;;;;;;;8.63;6.40;;;25.50;97.30;;;;;;5014257;28;20480;-81
2021/07/13 10:10:07;;;;;;;9.63;6.40;;;25.50;97.30;;;;;;5015454;28;20411;-81
2021/07/13 10:12:34;;;;;;;13.00;5.57;;;25.50;97.30;;;;;;5014870;28;20459;-81
2021/07/13 10:15:00;;;;;;;9.33;6.13;;;25.50;97.30;;;;;;5014334;28;20416;-81
2021/07/13 10:17:31;;;;;;;9.33;5.30;;;25.40;97.30;;;;;;5014287;28;20805;-81
2021/07/13 10:20:05;;;;;;;6.50;6.10;;;25.40;97.30;;;;;;5015834;28;20446;-81
2021/07/13 10:22:32;;;;;;;7.10;6.10;;;25.40;97.30;;;;;;5015243;28;20447;-81
2021/07/13 10:24:59;;;;;;;6.03;5.73;;;25.40;97.30;;;;;;5014505;28;20479;-81
2021/07/13 10:27:32;;;;;;;8.10;5.37;;;25.40;97.30;;;;;;5014977;28;20423;-81
2021/07/13 10:30:07;;;;;;;8.20;5.90;;;25.40;97.30;;;;;;5016150;28;20419;-81
2021/07/13 10:32:34;;;;;;;7.73;5.90;;;25.40;97.30;;;;;;5015166;28;20458;-81
2021/07/13 10:35:04;;;;;;;5.50;5.20;;;25.40;97.30;;;;;;5015262;28;20498;-81
2021/07/13 10:37:41;;;;;;;7.10;5.77;;;25.40;97.30;;;;;;5010988;28;20424;-81
2021/07/13 10:40:11;;;;;;;6.90;5.60;;;25.40;97.30;;;;;;5015252;28;20410;-81
2021/07/13 10:42:43;;;;;;;6.93;5.63;;;25.30;97.30;;;;;;5015438;28;20558;-81
2021/07/13 10:45:20;;;;;;;9.43;6.80;;;25.30;97.30;;;;;;5014765;28;20423;-82
2021/07/13 10:47:56;;;;;;;11.00;6.00;;;25.30;97.30;;;;;;5013831;28;20843;-81
2021/07/13 10:50:22;;;;;;;7.40;7.00;;;25.30;97.30;;;;;;5014959;28;20425;-81
2021/07/13 10:53:04;;;;;;;10.50;7.70;;;25.20;97.30;;;;;;5014897;28;20451;-82
2021/07/13 10:55:30;;;;;;;9.47;7.60;;;25.20;97.30;;;;;;5016199;28;20595;-81
2021/07/13 11:00:51;;;;;;;10.10;7.90;;;25.20;97.30;;;;;;5038234;28;20192;-83
2021/07/13 11:03:50;;;;;;;14.80;8.50;;;25.20;97.30;;;;;;5020736;28;20411;-81
2021/07/13 11:09:23;;;;;;;11.13;7.93;;;25.30;97.30;;;;;;5042029;23;20529;-86
2021/07/13 11:11:49;;;;;;;11.40;8.27;;;25.30;97.30;;;;;;5003139;28;20529;-89
2021/07/13 11:14:15;;;;;;;13.20;8.27;;;25.30;97.30;;;;;;5018740;28;20473;-88
2021/07/13 11:16:43;;;;;;;10.40;7.80;;;25.40;97.30;;;;;;5027273;28;20428;-89
2021/07/13 11:19:17;;;;;;;13.93;8.03;;;25.40;97.30;;;;;;5016110;28;20446;-87
2021/07/13 11:21:50;;;;;;;9.80;8.10;;;25.50;97.30;;;;;;5019455;28;20465;-87
2021/07/13 11:24:18;;;;;;;10.40;7.57;;;25.80;97.30;;;;;;5019514;28;20442;-88
2021/07/13 11:26:51;;;;;;;9.10;6.93;;;25.90;97.30;;;;;;5036778;28;20506;-87
2021/07/13 11:29:23;;;;;;;10.80;6.93;;;26.10;97.30;;;;;;5018339;28;20468;-88
2021/07/13 11:32:00;;;;;;;6.57;6.10;;;26.20;97.30;;;;;;4992129;28;20877;-87
2021/07/13 11:34:32;;;;;;;9.67;6.53;;;26.20;97.30;;;;;;4990753;28;20436;-88
2021/07/13 11:36:57;;;;;;;9.50;7.00;;;26.20;97.30;;;;;;4998799;28;20412;-89
2021/07/13 11:39:26;;;;;;;7.23;6.63;;;26.30;97.30;;;;;;4998813;28;20559;-88
2021/07/13 11:41:54;;;;;;;7.90;6.10;;;26.30;97.30;;;;;;4999410;28;20181;-87
2021/07/13 11:44:21;;;;;;;8.70;7.10;;;26.30;97.30;;;;;;4998318;28;20443;-89
2021/07/13 11:46:50;;;;;;;6.57;6.17;;;26.30;97.30;;;;;;4998913;28;20473;-88
2021/07/13 11:49:26;;;;;;;9.60;5.43;;;26.30;97.30;;;;;;4999482;28;20455;-88
2021/07/13 11:51:59;;;;;;;7.70;5.23;;;26.30;96.80;;;;;;5001046;28;20447;-88
2021/07/13 11:54:27;;;;;;;6.50;5.27;;;26.30;97.00;;;;;;5002003;28;20452;-87
2021/07/13 11:56:57;;;;;;;7.33;5.33;;;26.20;95.40;;;;;;4999901;28;20799;-88
2021/07/13 11:59:28;;;;;;;6.17;5.40;;;26.30;96.40;;;;;;4998933;28;20404;-89
2021/07/13 12:02:03;;;;;;;7.83;5.50;;;26.30;96.10;;;;;;4999715;28;20412;-87
2021/07/13 12:04:35;;;;;;;6.97;5.20;;;26.30;96.50;;;;;;4999970;28;20471;-89
2021/07/13 12:07:01;;;;;;;8.17;5.47;;;26.40;96.30;;;;;;4998584;28;20404;-88
2021/07/13 12:09:35;;;;;;;4.50;4.30;;;26.40;94.00;;;;;;4998627;28;20499;-87
2021/07/13 12:12:09;;;;;;;5.07;4.40;;;26.50;94.20;;;;;;4998851;28;20459;-88
2021/07/13 12:14:36;;;;;;;6.00;4.70;;;26.60;94.50;;;;;;4998222;28;20436;-89
2021/07/13 12:17:05;;;;;;;5.23;4.93;;;26.80;96.70;;;;;;4998519;28;20586;-88
2021/07/13 12:19:32;;;;;;;6.53;4.30;;;26.90;95.60;;;;;;4999423;28;20462;-88
2021/07/13 12:22:00;;;;;;;5.90;4.37;;;27.10;94.90;;;;;;5016119;28;20416;-88
2021/07/13 12:24:40;;;;;;;7.63;4.77;;;27.20;93.70;;;;;;4997945;28;20451;-87
2021/07/13 12:27:08;;;;;;;5.70;4.90;;;27.50;93.00;;;;;;4998150;28;20419;-88
2021/07/13 12:29:35;;;;;;;8.47;4.50;;;27.70;96.60;;;;;;4997374;28;20435;-87
2021/07/13 12:32:03;;;;;;;4.90;3.80;;;27.90;94.30;;;;;;4998142;28;20452;-88
2021/07/13 12:34:34;;;;;;;7.20;4.43;;;28.00;93.00;;;;;;4999246;28;20432;-87
2021/07/13 12:37:04;;;;;;;6.00;4.37;;;28.10;91.90;;;;;;4997953;28;20829;-89
2021/07/13 12:39:31;;;;;;;5.40;4.13;;;28.20;91.10;;;;;;4996834;28;20926;-87
2021/07/13 12:41:59;;;;;;;5.83;4.13;;;28.10;91.60;;;;;;4998214;28;20428;-86
2021/07/13 12:44:29;;;;;;;5.60;3.50;;;28.20;90.20;;;;;;4997799;28;20455;-87
2021/07/13 12:47:32;;;;;;;5.73;3.90;;;28.20;90.90;;;;;;5016200;28;20861;-87
2021/07/13 12:50:24;;;;;;;5.10;3.57;;;28.30;91.30;;;;;;4999211;28;20416;-90
2021/07/13 12:53:06;;;;;;;4.40;3.90;;;28.40;88.30;;;;;;4995908;28;20530;-88
2021/07/13 12:55:36;;;;;;;4.43;3.80;;;28.40;86.80;;;;;;4998760;28;20484;-89
2021/07/13 12:58:15;;;;;;;7.23;4.00;;;28.30;86.50;;;;;;4998669;28;20470;-88